Time;durP1;ratioP1;P1;durP2;ratioP2;P2;SDS_P1;SDS_P2;PMS_P1;PMS_P2;Temp;Humidity;BMP_temperature;BMP_pressure;BME280_temperature;BME280_humidity;BME280_pressure;Samples;Min_cycle;Max_cycle;Signal;HPM_P1;HPM_P2
2021/01/05 00:00:31;;;;;;;14.47;10.53;;;6.40;58.30;;;;;;4897262;29;20984;-76
2021/01/05 00:02:58;;;;;;;12.53;9.30;;;6.40;58.40;;;;;;4897589;29;20553;-76
2021/01/05 00:05:24;;;;;;;13.27;10.23;;;6.40;58.30;;;;;;4897123;29;20575;-76
2021/01/05 00:07:51;;;;;;;16.10;10.23;;;6.40;58.30;;;;;;4897524;29;20465;-76
2021/01/05 00:10:20;;;;;;;12.03;9.60;;;6.40;58.80;;;;;;4897055;29;20459;-76
2021/01/05 00:12:47;;;;;;;12.73;10.23;;;6.40;58.10;;;;;;4895740;29;20477;-76
2021/01/05 00:15:16;;;;;;;15.07;10.30;;;6.40;58.10;;;;;;4896987;29;20459;-76
2021/01/05 00:17:42;;;;;;;13.87;10.00;;;6.40;58.20;;;;;;4896906;29;20816;-76
2021/01/05 00:20:15;;;;;;;14.37;11.70;;;6.50;58.30;;;;;;4897406;29;20463;-77
2021/01/05 00:22:44;;;;;;;15.93;13.20;;;6.40;58.20;;;;;;4885589;29;20474;-76
2021/01/05 00:25:13;;;;;;;19.37;13.10;;;6.40;58.40;;;;;;4897186;29;20501;-76
2021/01/05 00:27:43;;;;;;;12.73;11.20;;;6.30;58.40;;;;;;4896916;29;20827;-76
2021/01/05 00:30:12;;;;;;;15.47;12.20;;;6.30;58.50;;;;;;4896779;29;20908;-76
2021/01/05 00:32:41;;;;;;;15.70;12.30;;;6.30;58.70;;;;;;4896720;29;20464;-75
2021/01/05 00:35:09;;;;;;;13.97;11.30;;;6.30;58.90;;;;;;4897047;29;20466;-76
2021/01/05 00:37:59;;;;;;;16.80;12.90;;;6.30;59.10;;;;;;4896979;29;20467;-76
2021/01/05 00:40:26;;;;;;;14.70;12.13;;;6.30;59.30;;;;;;4892444;29;20475;-77
2021/01/05 00:42:55;;;;;;;16.50;12.20;;;6.30;59.30;;;;;;4896647;29;20463;-76
2021/01/05 00:45:30;;;;;;;16.50;13.50;;;6.30;59.50;;;;;;4900633;29;20503;-77
2021/01/05 00:47:56;;;;;;;16.63;12.17;;;6.30;59.50;;;;;;4900215;29;20462;-77
2021/01/05 00:50:23;;;;;;;15.60;12.60;;;6.30;59.40;;;;;;4898314;29;20847;-77
2021/01/05 00:52:50;;;;;;;16.27;11.87;;;6.30;59.50;;;;;;4898347;29;20455;-77
2021/01/05 00:55:16;;;;;;;13.43;10.90;;;6.30;59.40;;;;;;4900339;29;20849;-76
2021/01/05 00:57:43;;;;;;;17.10;13.00;;;6.40;59.30;;;;;;4900633;29;20825;-76
2021/01/05 01:00:16;;;;;;;14.73;11.37;;;6.40;59.40;;;;;;4900035;29;21169;-76
2021/01/05 01:02:43;;;;;;;16.20;11.63;;;6.30;59.50;;;;;;4900213;29;20456;-77
2021/01/05 01:05:13;;;;;;;17.13;12.53;;;6.30;59.50;;;;;;4899955;29;20502;-76
2021/01/05 01:07:40;;;;;;;16.63;12.33;;;6.40;59.70;;;;;;4900427;29;20466;-75
2021/01/05 01:10:08;;;;;;;16.27;11.10;;;6.30;59.60;;;;;;4900109;29;20526;-76
2021/01/05 01:12:37;;;;;;;17.70;12.10;;;6.30;59.80;;;;;;4900091;29;20462;-75
2021/01/05 01:15:09;;;;;;;18.40;13.07;;;6.40;59.90;;;;;;4898735;29;21035;-77
2021/01/05 01:17:37;;;;;;;18.60;13.70;;;6.30;59.80;;;;;;4900042;29;20459;-77
2021/01/05 01:20:06;;;;;;;18.23;13.43;;;6.30;59.80;;;;;;4900115;29;20494;-77
2021/01/05 01:22:33;;;;;;;16.27;11.83;;;6.30;59.90;;;;;;4900080;29;20468;-76
2021/01/05 01:25:00;;;;;;;18.27;12.47;;;6.30;59.90;;;;;;4899612;29;20498;-76
2021/01/05 01:27:27;;;;;;;15.73;12.87;;;6.40;59.90;;;;;;4899847;29;20512;-76
2021/01/05 01:29:53;;;;;;;21.83;13.97;;;6.40;60.10;;;;;;4899428;29;20460;-76
2021/01/05 01:32:23;;;;;;;13.33;11.70;;;6.40;60.00;;;;;;4899817;29;20463;-76
2021/01/05 01:34:50;;;;;;;19.20;12.97;;;6.40;60.10;;;;;;4899405;29;20456;-76
2021/01/05 01:37:18;;;;;;;16.73;12.07;;;6.40;60.10;;;;;;4899297;29;20844;-76
2021/01/05 01:39:46;;;;;;;15.30;12.40;;;6.40;60.10;;;;;;4899509;29;20896;-76
2021/01/05 01:42:14;;;;;;;15.47;13.13;;;6.40;60.90;;;;;;4898033;29;20482;-75
2021/01/05 01:44:44;;;;;;;17.03;12.23;;;6.40;60.40;;;;;;4899075;29;21030;-77
2021/01/05 01:47:14;;;;;;;13.23;11.83;;;6.40;60.30;;;;;;4881090;29;20489;-77
2021/01/05 01:49:46;;;;;;;16.47;12.10;;;6.40;60.20;;;;;;4882712;29;20490;-76
2021/01/05 01:52:19;;;;;;;13.93;11.47;;;6.40;60.10;;;;;;4898589;29;20574;-76
2021/01/05 01:55:06;;;;;;;16.87;12.77;;;6.40;60.20;;;;;;4898813;29;20465;-75
2021/01/05 01:58:00;;;;;;;16.50;12.60;;;6.40;60.30;;;;;;4899666;29;20459;-75
2021/01/05 02:00:41;;;;;;;21.60;12.50;;;6.40;60.30;;;;;;4898690;29;20477;-76
2021/01/05 02:03:24;;;;;;;14.60;12.30;;;6.40;60.30;;;;;;4898225;29;20460;-76
2021/01/05 02:06:08;;;;;;;16.37;11.93;;;6.30;60.30;;;;;;4898931;29;20979;-76
2021/01/05 02:08:42;;;;;;;18.43;13.37;;;6.40;60.60;;;;;;4897434;29;20495;-74
2021/01/05 02:11:22;;;;;;;17.53;13.07;;;6.40;60.50;;;;;;4899131;29;20463;-74
2021/01/05 02:14:05;;;;;;;17.70;12.80;;;6.50;60.60;;;;;;4899017;29;20463;-75
2021/01/05 02:16:51;;;;;;;17.03;11.40;;;6.40;60.50;;;;;;4899091;29;20450;-75
2021/01/05 02:19:27;;;;;;;17.43;12.63;;;6.30;60.40;;;;;;4898623;29;20468;-76
2021/01/05 02:22:07;;;;;;;17.50;12.97;;;6.30;60.60;;;;;;4898698;29;20475;-75
2021/01/05 02:24:45;;;;;;;14.77;11.27;;;6.30;60.60;;;;;;4898585;29;20496;-76
2021/01/05 02:27:13;;;;;;;21.47;14.77;;;6.30;60.90;;;;;;4898974;29;20453;-76
2021/01/05 02:29:44;;;;;;;17.53;12.93;;;6.40;61.00;;;;;;4898879;29;20865;-76
2021/01/05 02:32:19;;;;;;;19.70;14.10;;;6.40;61.00;;;;;;4898903;29;20454;-76
2021/01/05 02:35:18;;;;;;;16.83;12.20;;;6.40;60.70;;;;;;4896909;29;20836;-76
2021/01/05 02:37:57;;;;;;;16.53;12.23;;;6.50;60.80;;;;;;4898494;29;20823;-76
2021/01/05 02:40:36;;;;;;;17.50;12.27;;;6.50;60.80;;;;;;4897120;29;20452;-76
2021/01/05 02:43:35;;;;;;;18.10;13.03;;;6.50;60.80;;;;;;4897946;29;20511;-76
2021/01/05 02:46:20;;;;;;;17.80;12.97;;;6.50;60.70;;;;;;4873998;29;20564;-76
2021/01/05 02:49:11;;;;;;;17.23;12.03;;;6.50;60.50;;;;;;4898425;29;20468;-76
2021/01/05 02:52:25;;;;;;;17.77;11.80;;;6.50;60.60;;;;;;4897151;29;20550;-76
2021/01/05 02:55:20;;;;;;;15.50;12.43;;;6.50;60.40;;;;;;4845696;29;20460;-76
2021/01/05 02:58:00;;;;;;;20.50;14.20;;;6.50;60.50;;;;;;4898318;29;20461;-76
2021/01/05 03:01:12;;;;;;;18.93;13.07;;;6.60;60.50;;;;;;4897157;29;20482;-76
2021/01/05 03:03:45;;;;;;;19.13;12.90;;;6.50;60.50;;;;;;4896696;29;20538;-77
2021/01/05 03:06:26;;;;;;;17.43;13.63;;;6.50;60.50;;;;;;4898009;29;20460;-76
2021/01/05 03:09:34;;;;;;;18.57;13.60;;;6.50;60.50;;;;;;4897314;29;20516;-76
2021/01/05 03:12:15;;;;;;;20.17;13.53;;;6.60;60.50;;;;;;4897931;29;20495;-76
2021/01/05 03:14:55;;;;;;;16.80;13.33;;;6.50;60.50;;;;;;4897957;29;20459;-75
2021/01/05 03:17:28;;;;;;;17.90;14.43;;;6.50;60.60;;;;;;4897987;29;20485;-76
2021/01/05 03:20:09;;;;;;;21.90;14.67;;;6.50;60.80;;;;;;4895863;29;20469;-76
2021/01/05 03:22:51;;;;;;;25.97;15.57;;;6.50;60.70;;;;;;4897640;29;20486;-76
2021/01/05 03:25:19;;;;;;;21.60;15.60;;;6.50;60.80;;;;;;4897924;29;20499;-76
2021/01/05 03:27:47;;;;;;;25.23;15.30;;;6.50;60.90;;;;;;4896053;29;21064;-76
2021/01/05 03:30:24;;;;;;;25.87;15.93;;;6.50;61.00;;;;;;4897923;29;20468;-76
2021/01/05 03:32:52;;;;;;;24.87;16.80;;;6.50;61.00;;;;;;4897678;29;20850;-76
2021/01/05 03:35:20;;;;;;;21.40;15.67;;;6.50;61.00;;;;;;4897801;29;20511;-76
2021/01/05 03:37:46;;;;;;;18.07;14.07;;;6.50;61.10;;;;;;4897274;29;20473;-76
2021/01/05 03:40:13;;;;;;;22.50;15.20;;;6.50;61.10;;;;;;4897541;29;20459;-76
2021/01/05 03:42:40;;;;;;;23.70;16.07;;;6.50;61.00;;;;;;4897535;29;20542;-76
2021/01/05 03:45:08;;;;;;;27.47;18.07;;;6.50;61.00;;;;;;4897349;29;20495;-77
2021/01/05 03:47:35;;;;;;;25.70;15.87;;;6.50;61.30;;;;;;4897574;29;20471;-76
2021/01/05 03:50:03;;;;;;;23.33;16.83;;;6.50;61.50;;;;;;4896798;29;20483;-77
2021/01/05 03:52:30;;;;;;;22.23;14.47;;;6.50;61.50;;;;;;4897275;29;20462;-77
2021/01/05 03:54:57;;;;;;;24.07;17.23;;;6.40;61.40;;;;;;4895449;29;20959;-76
2021/01/05 03:57:23;;;;;;;24.70;15.97;;;6.40;61.60;;;;;;4896910;29;20471;-76
2021/01/05 03:59:49;;;;;;;23.60;15.80;;;6.40;61.50;;;;;;4896695;29;20473;-76
2021/01/05 04:02:16;;;;;;;23.87;16.27;;;6.40;61.50;;;;;;4897267;29;20463;-75
2021/01/05 04:04:42;;;;;;;21.83;15.73;;;6.40;61.60;;;;;;4895843;29;21019;-75
2021/01/05 04:07:09;;;;;;;24.37;14.87;;;6.50;61.90;;;;;;4896307;29;20531;-75
2021/01/05 04:09:36;;;;;;;21.07;15.67;;;6.50;61.90;;;;;;4897585;29;20475;-76
2021/01/05 04:12:03;;;;;;;24.60;15.90;;;6.50;61.80;;;;;;4897314;29;20456;-75
2021/01/05 04:14:30;;;;;;;27.77;16.57;;;6.60;61.90;;;;;;4897407;29;20832;-75
2021/01/05 04:16:56;;;;;;;21.73;14.53;;;6.60;61.90;;;;;;4897231;29;20530;-75
2021/01/05 04:19:23;;;;;;;21.60;14.00;;;6.50;61.70;;;;;;4899735;29;20468;-76
2021/01/05 04:21:50;;;;;;;19.97;15.83;;;6.50;61.40;;;;;;4899160;29;21071;-76
2021/01/05 04:24:17;;;;;;;23.23;15.53;;;6.50;61.60;;;;;;4901106;29;20582;-76
2021/01/05 04:26:45;;;;;;;20.50;15.13;;;6.50;61.60;;;;;;4900812;29;20525;-76
2021/01/05 04:29:11;;;;;;;18.43;13.60;;;6.50;61.80;;;;;;4900816;29;20458;-77
2021/01/05 04:31:39;;;;;;;18.90;14.87;;;6.50;62.00;;;;;;4900639;29;20484;-78
2021/01/05 04:34:06;;;;;;;22.80;16.60;;;6.50;62.00;;;;;;4901004;29;20462;-77
2021/01/05 04:36:33;;;;;;;19.33;14.10;;;6.60;62.20;;;;;;4900694;29;20564;-77
2021/01/05 04:39:00;;;;;;;26.47;15.23;;;6.50;62.00;;;;;;4900730;29;20455;-77
2021/01/05 04:41:28;;;;;;;22.27;15.70;;;6.50;62.00;;;;;;4899976;29;20478;-76
2021/01/05 04:43:59;;;;;;;19.50;14.03;;;6.50;61.90;;;;;;4900536;29;20955;-76
2021/01/05 04:46:43;;;;;;;21.67;15.20;;;6.50;62.20;;;;;;4900610;29;20476;-76
2021/01/05 04:49:48;;;;;;;26.40;17.50;;;6.50;62.40;;;;;;4881150;29;20547;-75
2021/01/05 04:52:18;;;;;;;16.00;13.50;;;6.50;62.50;;;;;;4879328;29;20554;-76
2021/01/05 04:54:50;;;;;;;20.60;16.37;;;6.60;62.60;;;;;;4900530;29;20467;-76
2021/01/05 04:57:22;;;;;;;21.10;14.83;;;6.60;62.70;;;;;;4899520;29;20522;-76
2021/01/05 04:59:54;;;;;;;23.93;16.33;;;6.60;62.80;;;;;;4900384;29;20455;-76
2021/01/05 05:02:35;;;;;;;23.57;15.53;;;6.60;62.90;;;;;;4900106;29;20952;-76
2021/01/05 05:05:18;;;;;;;24.53;15.83;;;6.60;63.00;;;;;;4900220;29;20503;-77
2021/01/05 05:07:54;;;;;;;22.43;15.90;;;6.50;63.10;;;;;;4899024;29;20463;-76
2021/01/05 05:10:26;;;;;;;17.73;14.80;;;6.50;63.40;;;;;;4898741;29;20829;-76
2021/01/05 05:13:00;;;;;;;21.80;16.10;;;6.50;63.50;;;;;;4899565;29;20831;-75
2021/01/05 05:15:47;;;;;;;19.80;14.77;;;6.60;63.60;;;;;;4898226;29;20458;-75
2021/01/05 05:18:32;;;;;;;18.93;14.90;;;6.60;63.70;;;;;;4897692;29;20473;-75
2021/01/05 05:21:28;;;;;;;22.33;16.80;;;6.60;64.00;;;;;;4899328;29;20473;-76
2021/01/05 05:24:04;;;;;;;20.80;16.27;;;6.60;63.90;;;;;;4897770;29;20474;-76
2021/01/05 05:26:39;;;;;;;28.07;16.67;;;6.60;63.90;;;;;;4899553;29;20452;-76
2021/01/05 05:29:16;;;;;;;19.93;14.53;;;6.70;64.20;;;;;;4881148;29;20460;-75
2021/01/05 05:31:45;;;;;;;20.07;17.40;;;6.70;64.30;;;;;;4892449;29;20877;-77
2021/01/05 05:34:17;;;;;;;22.13;15.40;;;6.70;64.50;;;;;;4899695;29;20482;-75
2021/01/05 05:37:06;;;;;;;23.40;17.07;;;6.70;64.30;;;;;;4899544;29;20460;-75
2021/01/05 05:40:10;;;;;;;22.90;16.70;;;6.70;64.50;;;;;;4900008;29;20463;-75
2021/01/05 05:42:52;;;;;;;22.53;16.43;;;6.70;64.70;;;;;;4899516;29;20463;-74
2021/01/05 05:45:23;;;;;;;24.53;15.87;;;6.70;64.70;;;;;;4898487;29;20510;-75
2021/01/05 05:47:59;;;;;;;23.60;18.13;;;6.70;64.70;;;;;;4899311;29;20520;-75
2021/01/05 05:50:34;;;;;;;19.10;15.17;;;6.70;64.50;;;;;;4899029;29;20946;-76
2021/01/05 05:53:06;;;;;;;23.23;16.90;;;6.60;64.50;;;;;;4898369;29;20472;-74
2021/01/05 05:55:44;;;;;;;25.53;15.07;;;6.60;64.50;;;;;;4899104;29;20464;-75
2021/01/05 05:58:11;;;;;;;17.23;14.83;;;6.60;64.60;;;;;;4898976;29;20477;-75
2021/01/05 06:00:40;;;;;;;23.00;15.97;;;6.70;64.60;;;;;;4899065;29;20468;-75
2021/01/05 06:03:12;;;;;;;22.60;15.93;;;6.70;64.80;;;;;;4899349;29;20949;-76
2021/01/05 06:05:40;;;;;;;21.17;14.60;;;6.70;65.00;;;;;;4898948;29;20531;-77
2021/01/05 06:08:09;;;;;;;19.00;16.50;;;6.70;65.00;;;;;;4878782;29;20544;-76
2021/01/05 06:10:36;;;;;;;23.03;15.30;;;6.70;64.90;;;;;;4880698;29;20453;-75
2021/01/05 06:13:03;;;;;;;24.00;18.13;;;6.70;65.00;;;;;;4897667;29;20844;-77
2021/01/05 06:15:33;;;;;;;22.57;15.70;;;6.70;65.10;;;;;;4897057;29;20467;-75
2021/01/05 06:17:59;;;;;;;21.80;15.93;;;6.80;65.20;;;;;;4898133;29;20455;-75
2021/01/05 06:20:27;;;;;;;26.03;15.70;;;6.80;65.20;;;;;;4896515;29;21028;-75
2021/01/05 06:22:54;;;;;;;25.27;17.07;;;6.80;65.20;;;;;;4898398;29;20836;-76
2021/01/05 06:25:21;;;;;;;22.77;16.53;;;6.80;65.20;;;;;;4897751;29;20867;-76
2021/01/05 06:27:48;;;;;;;24.30;17.40;;;6.80;65.00;;;;;;4898381;29;20471;-75
2021/01/05 06:30:15;;;;;;;22.27;16.20;;;6.70;64.60;;;;;;4898194;29;20839;-77
2021/01/05 06:32:42;;;;;;;20.30;14.77;;;6.70;65.00;;;;;;4890385;29;20458;-75
2021/01/05 06:35:10;;;;;;;22.20;16.80;;;6.70;65.00;;;;;;4896825;29;20527;-76
2021/01/05 06:37:39;;;;;;;23.13;15.20;;;6.70;65.20;;;;;;4897879;29;20455;-75
2021/01/05 06:40:07;;;;;;;23.33;16.70;;;6.70;65.10;;;;;;4879782;29;20453;-75
2021/01/05 06:42:34;;;;;;;20.63;15.37;;;6.70;65.30;;;;;;4893674;29;20970;-76
2021/01/05 06:45:01;;;;;;;24.50;17.50;;;6.70;65.30;;;;;;4897115;29;20498;-75
2021/01/05 06:47:27;;;;;;;22.27;16.27;;;6.80;65.50;;;;;;4897386;29;21002;-75
2021/01/05 06:49:54;;;;;;;26.30;17.20;;;6.80;65.50;;;;;;4898239;29;20460;-75
2021/01/05 06:52:20;;;;;;;19.03;15.07;;;6.80;65.70;;;;;;4897682;29;20457;-75
2021/01/05 06:54:47;;;;;;;20.70;16.40;;;6.80;65.60;;;;;;4897191;29;20592;-75
2021/01/05 06:57:14;;;;;;;21.10;16.40;;;6.80;65.60;;;;;;4896230;29;20477;-74
2021/01/05 06:59:40;;;;;;;20.60;15.17;;;6.80;65.60;;;;;;4896568;29;20953;-75
2021/01/05 07:02:08;;;;;;;22.50;15.70;;;6.80;65.30;;;;;;4896819;29;20477;-75
2021/01/05 07:04:34;;;;;;;19.60;15.63;;;6.80;65.40;;;;;;4898074;29;20504;-75
2021/01/05 07:07:02;;;;;;;23.53;16.00;;;6.80;65.30;;;;;;4897069;29;20466;-75
2021/01/05 07:09:30;;;;;;;18.70;15.47;;;6.70;65.00;;;;;;4897614;29;20459;-76
2021/01/05 07:11:59;;;;;;;20.80;14.70;;;6.70;65.20;;;;;;4897334;29;20476;-75
2021/01/05 07:14:27;;;;;;;21.07;14.40;;;6.70;65.40;;;;;;4897442;29;20495;-75
2021/01/05 07:16:54;;;;;;;20.43;16.23;;;6.70;65.40;;;;;;4896847;29;20452;-75
2021/01/05 07:19:21;;;;;;;21.80;17.77;;;6.70;65.40;;;;;;4897157;29;20463;-75
2021/01/05 07:21:47;;;;;;;23.40;18.37;;;6.70;65.40;;;;;;4897815;29;20470;-76
2021/01/05 07:24:14;;;;;;;22.87;16.63;;;6.70;65.60;;;;;;4897383;29;20459;-75
2021/01/05 07:26:45;;;;;;;24.20;16.43;;;6.80;65.90;;;;;;4896115;29;20456;-75
2021/01/05 07:29:14;;;;;;;25.40;15.47;;;6.80;65.90;;;;;;4897376;29;20456;-76
2021/01/05 07:31:41;;;;;;;22.77;15.43;;;6.80;65.80;;;;;;4897746;29;20457;-75
2021/01/05 07:34:09;;;;;;;18.83;14.43;;;6.80;65.50;;;;;;4898166;29;20451;-76
2021/01/05 07:36:38;;;;;;;22.93;16.13;;;6.90;65.80;;;;;;4897292;29;20893;-76
2021/01/05 07:39:14;;;;;;;21.27;15.90;;;6.90;65.70;;;;;;4896495;29;20588;-75
2021/01/05 07:41:40;;;;;;;21.00;15.83;;;6.90;65.70;;;;;;4896472;29;20995;-77
2021/01/05 07:44:07;;;;;;;20.37;15.97;;;6.90;65.90;;;;;;4897001;29;20466;-75
2021/01/05 07:46:34;;;;;;;22.13;16.60;;;6.90;65.90;;;;;;4897324;29;20475;-77
2021/01/05 07:49:01;;;;;;;20.33;14.80;;;6.90;65.80;;;;;;4896658;29;20452;-76
2021/01/05 07:51:27;;;;;;;16.40;14.17;;;6.90;65.60;;;;;;4896652;29;20498;-76
2021/01/05 07:53:54;;;;;;;23.70;15.67;;;6.90;65.80;;;;;;4899213;29;20451;-77
2021/01/05 07:56:21;;;;;;;22.53;15.30;;;6.90;65.90;;;;;;4902768;29;20556;-77
2021/01/05 07:58:47;;;;;;;24.10;15.33;;;6.90;65.90;;;;;;4903227;29;20959;-78
2021/01/05 08:01:14;;;;;;;20.93;15.13;;;6.90;66.00;;;;;;4903889;29;20467;-77
2021/01/05 08:03:41;;;;;;;19.20;13.50;;;6.90;65.90;;;;;;4903132;29;20454;-77
2021/01/05 08:06:10;;;;;;;22.97;16.23;;;6.90;65.90;;;;;;4903657;29;20494;-76
2021/01/05 08:08:36;;;;;;;23.27;15.60;;;6.90;65.80;;;;;;4903563;29;20455;-77
2021/01/05 08:11:03;;;;;;;22.40;15.07;;;6.90;65.80;;;;;;4903187;29;20457;-77
2021/01/05 08:13:30;;;;;;;20.47;15.00;;;6.90;66.50;;;;;;4903531;29;20464;-77
2021/01/05 08:15:56;;;;;;;18.87;13.17;;;6.90;66.10;;;;;;4903135;29;20466;-77
2021/01/05 08:18:23;;;;;;;18.10;13.70;;;6.90;66.20;;;;;;4903349;29;20965;-77
2021/01/05 08:20:50;;;;;;;15.43;13.20;;;6.90;66.30;;;;;;4901900;29;20804;-78
2021/01/05 08:23:18;;;;;;;17.70;14.00;;;6.90;66.20;;;;;;4891550;29;20475;-77
2021/01/05 08:25:45;;;;;;;18.50;13.23;;;6.90;66.10;;;;;;4901822;29;20530;-77
2021/01/05 08:28:12;;;;;;;19.17;12.57;;;6.90;66.10;;;;;;4903589;29;20507;-77
2021/01/05 08:30:39;;;;;;;17.40;14.37;;;6.90;66.10;;;;;;4903506;29;20466;-77
2021/01/05 08:33:08;;;;;;;22.10;14.47;;;6.90;66.30;;;;;;4903527;29;20460;-77
2021/01/05 08:35:35;;;;;;;20.47;13.10;;;6.90;66.30;;;;;;4902922;29;20511;-77
2021/01/05 08:38:03;;;;;;;17.40;13.40;;;6.90;66.50;;;;;;4903409;29;20463;-77
2021/01/05 08:40:32;;;;;;;17.70;13.23;;;6.90;66.50;;;;;;4903018;29;20464;-76
2021/01/05 08:43:01;;;;;;;13.37;11.97;;;6.90;66.70;;;;;;4903122;29;20856;-76
2021/01/05 08:45:29;;;;;;;15.93;12.83;;;6.90;67.00;;;;;;4902516;29;20498;-77
2021/01/05 08:47:56;;;;;;;16.93;12.70;;;6.90;67.00;;;;;;4901407;29;20466;-75
2021/01/05 08:50:28;;;;;;;16.30;12.40;;;6.90;67.00;;;;;;4902905;29;20460;-75
2021/01/05 08:52:55;;;;;;;16.10;13.60;;;6.90;67.00;;;;;;4902829;29;20457;-76
2021/01/05 08:55:23;;;;;;;17.20;12.33;;;6.90;67.00;;;;;;4901657;29;20462;-75
2021/01/05 08:57:49;;;;;;;14.50;12.10;;;6.90;67.10;;;;;;4901828;29;20976;-76
2021/01/05 09:00:17;;;;;;;13.50;12.00;;;6.90;67.10;;;;;;4902322;29;20471;-75
2021/01/05 09:02:44;;;;;;;14.13;12.63;;;6.90;67.10;;;;;;4902831;29;20457;-76
2021/01/05 09:05:11;;;;;;;17.20;13.90;;;6.90;67.10;;;;;;4900438;29;20499;-75
2021/01/05 09:07:38;;;;;;;17.33;13.67;;;6.90;67.20;;;;;;4899313;29;20800;-76
2021/01/05 09:10:06;;;;;;;18.23;13.13;;;6.90;67.30;;;;;;4899026;29;20526;-75
2021/01/05 09:12:35;;;;;;;15.67;12.63;;;7.00;67.50;;;;;;4900308;29;21033;-75
2021/01/05 09:15:01;;;;;;;16.27;12.33;;;7.00;67.40;;;;;;4897497;29;20457;-76
2021/01/05 09:17:28;;;;;;;16.63;11.97;;;7.00;67.10;;;;;;4899372;29;20477;-76
2021/01/05 09:19:55;;;;;;;13.03;11.73;;;7.00;67.00;;;;;;4899089;29;20480;-77
2021/01/05 09:22:31;;;;;;;16.90;12.50;;;7.00;66.90;;;;;;4898522;29;20464;-76
2021/01/05 09:25:00;;;;;;;15.33;12.47;;;7.00;67.00;;;;;;4899023;29;20549;-77
2021/01/05 09:27:27;;;;;;;17.83;12.63;;;7.00;67.00;;;;;;4898775;29;20566;-76
2021/01/05 09:29:54;;;;;;;14.17;12.63;;;7.00;67.10;;;;;;4899848;29;20456;-75
2021/01/05 09:32:21;;;;;;;17.77;13.23;;;7.00;67.10;;;;;;4897429;29;20554;-75
2021/01/05 09:34:47;;;;;;;14.40;12.87;;;7.00;67.30;;;;;;4897960;29;20877;-75
2021/01/05 09:37:22;;;;;;;18.97;15.00;;;7.00;67.50;;;;;;4898992;29;20461;-76
2021/01/05 09:39:52;;;;;;;17.87;13.87;;;7.00;67.60;;;;;;4897945;29;20944;-76
2021/01/05 09:42:18;;;;;;;24.23;15.00;;;7.00;67.60;;;;;;4889160;29;20546;-76
2021/01/05 09:44:45;;;;;;;19.10;14.10;;;7.00;67.50;;;;;;4886593;29;20503;-76
2021/01/05 09:47:18;;;;;;;22.00;13.80;;;7.00;67.50;;;;;;4894099;29;20487;-76
2021/01/05 09:49:47;;;;;;;16.73;13.77;;;7.00;67.40;;;;;;4898256;29;20464;-79
2021/01/05 09:52:14;;;;;;;16.13;12.37;;;7.10;67.40;;;;;;4897956;29;20820;-77
2021/01/05 09:54:42;;;;;;;22.93;14.40;;;7.10;67.30;;;;;;4898347;29;20470;-78
2021/01/05 09:57:09;;;;;;;16.73;14.93;;;7.10;67.20;;;;;;4898424;29;20536;-75
2021/01/05 09:59:35;;;;;;;18.17;13.50;;;7.10;67.20;;;;;;4898407;29;21020;-75
2021/01/05 10:02:08;;;;;;;19.40;14.57;;;7.10;67.20;;;;;;4897982;29;20515;-76
2021/01/05 10:04:41;;;;;;;17.67;13.50;;;7.10;67.20;;;;;;4898086;29;20573;-77
2021/01/05 10:07:08;;;;;;;21.47;16.43;;;7.10;67.10;;;;;;4889770;29;20461;-76
2021/01/05 10:09:37;;;;;;;18.33;13.60;;;7.10;67.10;;;;;;4897522;29;20813;-77
2021/01/05 10:12:20;;;;;;;21.90;15.57;;;7.10;67.10;;;;;;4898637;29;20540;-77
2021/01/05 10:14:46;;;;;;;15.40;12.83;;;7.10;67.10;;;;;;4898203;29;20476;-76
2021/01/05 10:17:13;;;;;;;20.00;14.23;;;7.10;67.20;;;;;;4896786;29;21019;-76
2021/01/05 10:19:40;;;;;;;21.70;14.73;;;7.20;67.20;;;;;;4900975;29;20459;-76
2021/01/05 10:22:07;;;;;;;17.07;14.20;;;7.20;67.10;;;;;;4898290;29;20968;-78
2021/01/05 10:24:35;;;;;;;19.37;14.40;;;7.20;66.60;;;;;;4897956;29;21028;-78
2021/01/05 10:27:18;;;;;;;17.57;14.20;;;7.20;66.80;;;;;;4898282;29;20459;-77
2021/01/05 10:29:45;;;;;;;20.73;14.00;;;7.20;66.70;;;;;;4897719;29;20876;-77
2021/01/05 10:32:12;;;;;;;19.90;13.83;;;7.20;66.60;;;;;;4896958;29;20805;-77
2021/01/05 10:34:49;;;;;;;21.53;15.00;;;7.20;66.30;;;;;;4896326;29;20461;-77
2021/01/05 10:37:24;;;;;;;17.53;13.77;;;7.20;66.60;;;;;;4895977;29;20479;-77
2021/01/05 10:39:58;;;;;;;19.50;14.40;;;7.20;66.70;;;;;;4898207;29;20548;-77
2021/01/05 10:45:40;;;;;;;17.30;15.20;;;7.20;66.60;;;;;;4887663;29;20859;-75
2021/01/05 10:48:09;;;;;;;18.50;14.07;;;7.20;66.70;;;;;;4897443;29;20464;-77
2021/01/05 10:50:39;;;;;;;20.77;14.80;;;7.30;66.70;;;;;;4896809;29;20450;-76
2021/01/05 10:56:06;;;;;;;20.13;14.63;;;7.30;66.60;;;;;;4881106;29;20447;-77
2021/01/05 10:58:52;;;;;;;18.07;13.57;;;7.30;66.50;;;;;;4898251;29;20465;-77
2021/01/05 11:01:26;;;;;;;18.50;15.00;;;7.30;66.40;;;;;;4892426;29;20476;-77
2021/01/05 11:04:10;;;;;;;19.80;13.07;;;7.30;66.40;;;;;;4887000;29;20946;-78
2021/01/05 11:06:37;;;;;;;19.47;14.30;;;7.30;66.50;;;;;;4897640;29;20500;-74
2021/01/05 11:09:06;;;;;;;19.80;15.00;;;7.30;66.50;;;;;;4897799;29;20483;-78
2021/01/05 11:11:32;;;;;;;17.63;15.70;;;7.30;66.30;;;;;;4897038;29;20461;-77
2021/01/05 11:13:59;;;;;;;19.20;14.17;;;7.30;66.40;;;;;;4896712;29;20532;-77
2021/01/05 11:16:26;;;;;;;17.53;13.00;;;7.40;66.60;;;;;;4897513;29;20524;-77
2021/01/05 11:18:52;;;;;;;17.40;13.83;;;7.30;66.20;;;;;;4896831;29;20458;-76
2021/01/05 11:21:19;;;;;;;16.13;13.10;;;7.30;66.20;;;;;;4896842;29;20551;-77
2021/01/05 11:23:46;;;;;;;23.73;15.93;;;7.30;66.10;;;;;;4896693;29;20463;-77
2021/01/05 11:26:13;;;;;;;20.00;15.00;;;7.30;66.40;;;;;;4897839;29;20911;-77
2021/01/05 11:28:40;;;;;;;15.93;13.70;;;7.30;66.60;;;;;;4894617;29;20459;-76
2021/01/05 11:31:08;;;;;;;22.33;16.50;;;7.30;66.60;;;;;;4897417;29;20459;-76
2021/01/05 11:33:35;;;;;;;23.50;15.40;;;7.40;66.60;;;;;;4896440;29;20969;-76
2021/01/05 11:36:01;;;;;;;16.20;12.70;;;7.40;66.60;;;;;;4897091;29;20466;-75
2021/01/05 11:38:28;;;;;;;20.40;13.70;;;7.30;66.50;;;;;;4897337;29;20448;-76
2021/01/05 11:40:55;;;;;;;18.23;15.27;;;7.30;66.40;;;;;;4897260;29;20459;-76
2021/01/05 11:43:22;;;;;;;18.50;14.00;;;7.40;66.30;;;;;;4896787;29;21018;-78
2021/01/05 11:45:48;;;;;;;17.90;15.10;;;7.30;66.20;;;;;;4897034;29;20496;-76
2021/01/05 11:48:15;;;;;;;17.90;14.77;;;7.30;66.30;;;;;;4896650;29;20973;-76
2021/01/05 11:50:42;;;;;;;19.43;14.20;;;7.30;66.40;;;;;;4896704;29;20466;-76
2021/01/05 11:53:08;;;;;;;19.80;13.80;;;7.30;66.40;;;;;;4894455;29;20471;-76
2021/01/05 11:55:35;;;;;;;16.27;12.60;;;7.30;66.50;;;;;;4894537;29;20465;-77
2021/01/05 11:58:02;;;;;;;25.73;15.67;;;7.30;66.50;;;;;;4896303;29;20461;-77
2021/01/05 12:00:30;;;;;;;19.50;15.07;;;7.30;66.50;;;;;;4896511;29;20981;-77
2021/01/05 12:02:56;;;;;;;17.80;13.00;;;7.30;66.50;;;;;;4897450;29;20923;-77
2021/01/05 12:05:23;;;;;;;20.47;14.70;;;7.30;66.50;;;;;;4896107;29;20582;-78
2021/01/05 12:07:51;;;;;;;17.37;14.67;;;7.20;66.30;;;;;;4897092;29;20463;-78
2021/01/05 12:10:18;;;;;;;21.00;14.37;;;7.20;66.20;;;;;;4897052;29;20467;-77
2021/01/05 12:12:44;;;;;;;23.70;14.90;;;7.20;66.40;;;;;;4897278;29;20453;-78
2021/01/05 12:15:13;;;;;;;15.83;13.80;;;7.20;66.60;;;;;;4896486;29;20924;-78
2021/01/05 12:17:40;;;;;;;17.63;15.33;;;7.20;66.70;;;;;;4896428;29;20460;-77
2021/01/05 12:20:07;;;;;;;17.80;14.40;;;7.20;66.80;;;;;;4896719;29;20462;-77
2021/01/05 12:22:34;;;;;;;22.23;15.20;;;7.20;66.70;;;;;;4894857;29;20881;-77
2021/01/05 12:25:00;;;;;;;13.80;12.23;;;7.30;66.60;;;;;;4897158;29;20493;-77
2021/01/05 12:27:27;;;;;;;16.83;13.77;;;7.30;66.50;;;;;;4895861;29;20457;-77
2021/01/05 12:29:53;;;;;;;16.87;14.37;;;7.30;66.50;;;;;;4896663;29;20469;-77
2021/01/05 12:32:21;;;;;;;20.40;15.60;;;7.30;66.20;;;;;;4896186;29;20471;-77
2021/01/05 12:34:50;;;;;;;19.70;14.07;;;7.30;66.40;;;;;;4889221;29;20466;-76
2021/01/05 12:37:21;;;;;;;18.47;14.93;;;7.30;66.50;;;;;;4898334;29;20972;-77
2021/01/05 12:39:47;;;;;;;17.63;13.43;;;7.30;66.70;;;;;;4897708;29;20460;-77
2021/01/05 12:42:18;;;;;;;19.60;15.17;;;7.30;66.60;;;;;;4900388;29;20832;-78
2021/01/05 12:44:44;;;;;;;16.93;13.87;;;7.30;66.50;;;;;;4900974;29;20469;-77
2021/01/05 12:47:11;;;;;;;19.33;14.87;;;7.20;66.50;;;;;;4900748;29;20497;-78
2021/01/05 12:49:38;;;;;;;17.20;12.33;;;7.30;66.50;;;;;;4898998;29;20460;-77
2021/01/05 12:52:08;;;;;;;18.43;14.57;;;7.30;66.50;;;;;;4900555;29;20451;-77
2021/01/05 12:54:36;;;;;;;22.60;14.27;;;7.30;66.50;;;;;;4900510;29;20475;-77
2021/01/05 12:57:04;;;;;;;19.20;14.30;;;7.30;66.30;;;;;;4899906;29;20467;-77
2021/01/05 12:59:31;;;;;;;17.17;12.87;;;7.30;66.20;;;;;;4900627;29;20460;-77